Mount Tabor, Arkansas
Current Conditions -  °F | °C
As of 2:53 PM on Tuesday 25 Nov 2014 (Local Time) from KLLQ Reporting Station
Light Rain Light Rain  
Wind Chill: 54°   Ceiling: Unl
Heat Index: 54°   Visibility: 10mi
Dew Point: 24°   Wind: 6mph
Humidity: 31%   Direction: 280°W
Pressure: 30.18"   Gusts: NA
Location:  33.5819°N, 91.7907°W
Report Text: KLLQ 252053Z AUTO 28005KT 10SM -RA CLR 12/M04 A3018 RMK AO2 RAB29 SLP219 P0000 60000 T01221044 56023
Loading
Personal Weather Stations






























Interactive Weather Map New forecast layout! Learn more

10-Day Weather Forecast

Advertisements
Track Severe Weather on mobile